Time;durP1;ratioP1;P1;durP2;ratioP2;P2;SDS_P1;SDS_P2;PMS_P1;PMS_P2;Temp;Humidity;BMP_temperature;BMP_pressure;BME280_temperature;BME280_humidity;BME280_pressure;Samples;Min_cycle;Max_cycle;Signal;HPM_P1;HPM_P2
2023/04/22 00:43:32;;;;;;;1999.90;999.90;;;;;;;;;;6211895;23;20194;-68
2023/04/22 00:46:17;;;;;;;1999.90;999.90;;;;;;;;;;6213227;23;20379;-68
2023/04/22 00:49:02;;;;;;;1999.90;999.90;;;;;;;;;;6213208;23;20169;-68
2023/04/22 00:51:47;;;;;;;1999.90;999.90;;;;;;;;;;6213991;23;20681;-69
2023/04/22 00:54:33;;;;;;;1999.90;999.90;;;;;;;;;;6214029;23;20642;-68
2023/04/22 00:57:18;;;;;;;1999.90;999.90;;;;;;;;;;6214120;23;20172;-68
2023/04/22 01:00:05;;;;;;;1999.90;999.90;;;;;;;;;;6214922;23;20361;-65
2023/04/22 01:02:50;;;;;;;1999.90;999.90;;;;;;;;;;6214288;23;20213;-68
2023/04/22 01:05:35;;;;;;;1999.90;999.90;;;;;;;;;;6214128;23;20512;-69
2023/04/22 01:08:20;;;;;;;1999.90;999.90;;;;;;;;;;6214524;23;20217;-69
2023/04/22 01:11:05;;;;;;;1999.90;999.90;;;;;;;;;;6214285;23;20166;-70
2023/04/22 01:13:50;;;;;;;1999.90;999.90;;;;;;;;;;6214164;23;20189;-69
2023/04/22 01:16:37;;;;;;;1999.90;999.90;;;;;;;;;;6214449;23;20169;-69
2023/04/22 01:19:23;;;;;;;1999.90;999.90;;;;;;;;;;6214697;23;20502;-66
2023/04/22 01:22:09;;;;;;;1999.90;999.90;;;;;;;;;;6213858;23;20217;-69
2023/04/22 01:24:56;;;;;;;1999.90;999.90;;;;;;;;;;6214249;23;20610;-68
2023/04/22 01:27:41;;;;;;;1999.90;999.90;;;;;;;;;;6213327;23;20169;-69
2023/04/22 01:30:26;;;;;;;1999.90;999.90;;;;;;;;;;6213434;23;20515;-69
2023/04/22 01:33:12;;;;;;;1999.90;999.90;;;;;;;;;;6212527;23;20204;-69
2023/04/22 01:35:57;;;;;;;1999.90;999.90;;;;;;;;;;6213968;23;20170;-68
2023/04/22 01:38:42;;;;;;;1999.90;999.90;;;;;;;;;;6213436;23;20629;-70
2023/04/22 01:41:28;;;;;;;1999.90;999.90;;;;;;;;;;6213488;23;20205;-69
2023/04/22 01:44:14;;;;;;;1999.90;999.90;;;;;;;;;;6213778;23;20165;-68
2023/04/22 01:46:59;;;;;;;1999.90;999.90;;;;;;;;;;6213904;23;20181;-69
2023/04/22 01:49:44;;;;;;;1999.90;999.90;;;;;;;;;;6213656;23;20820;-68
2023/04/22 01:52:29;;;;;;;1999.90;999.90;;;;;;;;;;6212646;23;20201;-69
2023/04/22 01:55:14;;;;;;;1999.90;999.90;;;;;;;;;;6213858;23;20189;-69
2023/04/22 01:58:00;;;;;;;1999.90;999.90;;;;;;;;;;6214142;23;20166;-69
2023/04/22 02:00:46;;;;;;;1999.90;999.90;;;;;;;;;;6214225;23;20166;-68
2023/04/22 02:03:31;;;;;;;1999.90;999.90;;;;;;;;;;6213761;23;20259;-69
2023/04/22 02:06:16;;;;;;;1999.90;999.90;;;;;;;;;;6214516;23;20506;-67
2023/04/22 02:09:01;;;;;;;1999.90;999.90;;;;;;;;;;6213840;23;20636;-70
2023/04/22 02:11:46;;;;;;;1999.90;999.90;;;;;;;;;;6213497;23;20201;-69
2023/04/22 02:14:32;;;;;;;1999.90;999.90;;;;;;;;;;6213857;23;20278;-66
2023/04/22 02:17:17;;;;;;;1999.90;999.90;;;;;;;;;;6213555;23;20173;-68
2023/04/22 02:20:03;;;;;;;1999.90;999.90;;;;;;;;;;6214103;23;20165;-69
2023/04/22 02:22:49;;;;;;;1999.90;999.90;;;;;;;;;;6212688;23;20205;-69
2023/04/22 02:25:34;;;;;;;1999.90;999.90;;;;;;;;;;6212998;23;20777;-69
2023/04/22 02:28:19;;;;;;;1999.90;999.90;;;;;;;;;;6213884;23;20692;-69
2023/04/22 02:31:05;;;;;;;1999.90;999.90;;;;;;;;;;6213313;23;20166;-70
2023/04/22 02:33:50;;;;;;;1999.90;999.90;;;;;;;;;;6213676;23;20522;-68
2023/04/22 02:36:35;;;;;;;1999.90;999.90;;;;;;;;;;6213593;23;20669;-68
2023/04/22 02:39:20;;;;;;;1999.90;999.90;;;;;;;;;;6213188;23;20378;-70
2023/04/22 02:42:05;;;;;;;1999.90;999.90;;;;;;;;;;6213244;23;20244;-68
2023/04/22 02:44:50;;;;;;;1999.90;999.90;;;;;;;;;;6213807;23;20514;-70
2023/04/22 02:47:37;;;;;;;1999.90;999.90;;;;;;;;;;6212671;23;20246;-67
2023/04/22 02:50:22;;;;;;;1999.90;999.90;;;;;;;;;;6212637;23;20168;-68
2023/04/22 02:53:08;;;;;;;1999.90;999.90;;;;;;;;;;6215137;23;20276;-69
2023/04/22 02:55:54;;;;;;;1999.90;999.90;;;;;;;;;;6214979;23;20622;-69
2023/04/22 02:58:39;;;;;;;1999.90;999.90;;;;;;;;;;6215722;23;20505;-68
2023/04/22 03:01:24;;;;;;;1999.90;999.90;;;;;;;;;;6215278;23;20732;-68
2023/04/22 03:04:12;;;;;;;1999.90;999.90;;;;;;;;;;6215614;23;20162;-70
2023/04/22 03:06:58;;;;;;;1999.90;999.90;;;;;;;;;;6214164;23;20673;-68
2023/04/22 03:09:43;;;;;;;1999.90;999.90;;;;;;;;;;6214860;23;20166;-68
2023/04/22 03:12:28;;;;;;;1999.90;999.90;;;;;;;;;;6215066;23;20559;-67
2023/04/22 03:15:13;;;;;;;1999.90;999.90;;;;;;;;;;6213548;23;20402;-68
2023/04/22 03:17:58;;;;;;;1999.90;999.90;;;;;;;;;;6215837;23;20622;-68
2023/04/22 03:20:45;;;;;;;1999.90;999.90;;;;;;;;;;6215688;23;20245;-68
2023/04/22 03:23:30;;;;;;;1999.90;999.90;;;;;;;;;;6215305;23;20169;-70
2023/04/22 03:26:15;;;;;;;1999.90;999.90;;;;;;;;;;6214679;23;20500;-68
2023/04/22 03:29:00;;;;;;;1999.90;999.90;;;;;;;;;;6214247;23;20889;-68
2023/04/22 03:31:45;;;;;;;1999.90;999.90;;;;;;;;;;6215103;23;20201;-68
2023/04/22 03:34:29;;;;;;;1999.90;999.90;;;;;;;;;;6215325;23;20190;-69
2023/04/22 03:37:15;;;;;;;1999.90;999.90;;;;;;;;;;6215409;23;20244;-70
2023/04/22 03:40:00;;;;;;;1999.90;999.90;;;;;;;;;;6215406;23;20524;-69
2023/04/22 03:42:45;;;;;;;1999.90;999.90;;;;;;;;;;6214927;23;20795;-69
2023/04/22 03:45:30;;;;;;;1999.90;999.90;;;;;;;;;;6215205;23;20165;-68
2023/04/22 03:48:15;;;;;;;1999.90;999.90;;;;;;;;;;6215318;23;20597;-69
2023/04/22 03:51:00;;;;;;;1999.90;999.90;;;;;;;;;;6215136;23;20173;-69
2023/04/22 03:53:46;;;;;;;1999.90;999.90;;;;;;;;;;6215066;23;20526;-70
2023/04/22 03:56:32;;;;;;;1999.90;999.90;;;;;;;;;;6215329;23;20185;-69
2023/04/22 03:59:17;;;;;;;1999.90;999.90;;;;;;;;;;6215211;23;20213;-69
2023/04/22 04:02:03;;;;;;;1999.90;999.90;;;;;;;;;;6213781;23;20310;-68
2023/04/22 04:04:47;;;;;;;1999.90;999.90;;;;;;;;;;6212398;23;20173;-69
2023/04/22 04:07:32;;;;;;;1999.90;999.90;;;;;;;;;;6214251;23;20169;-67
2023/04/22 04:10:18;;;;;;;1999.90;999.90;;;;;;;;;;6213996;23;20507;-68
2023/04/22 04:13:03;;;;;;;1999.90;999.90;;;;;;;;;;6215065;23;20289;-68
2023/04/22 04:15:48;;;;;;;1999.90;999.90;;;;;;;;;;6214608;23;20189;-69
2023/04/22 04:18:33;;;;;;;1999.90;999.90;;;;;;;;;;6213069;23;20863;-67
2023/04/22 04:21:18;;;;;;;1999.90;999.90;;;;;;;;;;6214633;23;20244;-69
2023/04/22 04:24:03;;;;;;;1999.90;999.90;;;;;;;;;;6214355;23;20165;-68
2023/04/22 04:26:50;;;;;;;1999.90;999.90;;;;;;;;;;6214779;23;20208;-66
2023/04/22 04:29:34;;;;;;;1999.90;999.90;;;;;;;;;;6215174;23;20622;-69
2023/04/22 04:32:20;;;;;;;1999.90;999.90;;;;;;;;;;6214858;23;20222;-66
2023/04/22 04:35:06;;;;;;;1999.90;999.90;;;;;;;;;;6214584;23;20190;-68
2023/04/22 04:37:52;;;;;;;1999.90;999.90;;;;;;;;;;6214859;23;20170;-68
2023/04/22 04:40:37;;;;;;;1999.90;999.90;;;;;;;;;;6214460;23;20220;-69
2023/04/22 04:43:24;;;;;;;1999.90;999.90;;;;;;;;;;6214177;23;20236;-66
2023/04/22 04:46:09;;;;;;;1999.90;999.90;;;;;;;;;;6214599;23;20166;-68
2023/04/22 04:48:54;;;;;;;1999.90;999.90;;;;;;;;;;6214459;23;20276;-67
2023/04/22 04:51:39;;;;;;;1999.90;999.90;;;;;;;;;;6214458;23;20217;-70
2023/04/22 04:54:24;;;;;;;1999.90;999.90;;;;;;;;;;6214154;23;20264;-68
2023/04/22 04:57:09;;;;;;;1999.90;999.90;;;;;;;;;;6214497;23;20209;-65
2023/04/22 04:59:55;;;;;;;1999.90;999.90;;;;;;;;;;6214613;23;20169;-66
2023/04/22 05:02:40;;;;;;;1999.90;999.90;;;;;;;;;;6214278;23;20201;-68
2023/04/22 05:05:25;;;;;;;1999.90;999.90;;;;;;;;;;6212555;23;20705;-68
2023/04/22 05:08:10;;;;;;;1999.90;999.90;;;;;;;;;;6214440;23;20228;-68
2023/04/22 05:10:55;;;;;;;1999.90;999.90;;;;;;;;;;6213916;23;20250;-68
2023/04/22 05:13:40;;;;;;;1999.90;999.90;;;;;;;;;;6213050;23;20189;-68
2023/04/22 05:16:27;;;;;;;1999.90;999.90;;;;;;;;;;6214234;23;20174;-68
2023/04/22 05:19:12;;;;;;;1999.90;999.90;;;;;;;;;;6213874;23;20169;-68
2023/04/22 05:21:57;;;;;;;1999.90;999.90;;;;;;;;;;6214374;23;20231;-67
2023/04/22 05:24:42;;;;;;;1999.90;999.90;;;;;;;;;;6213698;23;20165;-67
2023/04/22 05:27:27;;;;;;;1999.90;999.90;;;;;;;;;;6214467;23;20292;-69
2023/04/22 05:30:12;;;;;;;1999.90;999.90;;;;;;;;;;6213032;23;20289;-68
2023/04/22 05:32:58;;;;;;;1999.90;999.90;;;;;;;;;;6214095;23;20204;-68
2023/04/22 05:35:43;;;;;;;1999.90;999.90;;;;;;;;;;6214123;23;20571;-69
2023/04/22 05:38:28;;;;;;;1999.90;999.90;;;;;;;;;;6211485;23;20374;-69
2023/04/22 05:41:13;;;;;;;1999.90;999.90;;;;;;;;;;6213714;23;20383;-69
2023/04/22 05:43:58;;;;;;;1999.90;999.90;;;;;;;;;;6213370;23;20613;-69
2023/04/22 05:46:43;;;;;;;1999.90;999.90;;;;;;;;;;6214233;23;20169;-67
2023/04/22 05:49:29;;;;;;;1999.90;999.90;;;;;;;;;;6211934;23;20221;-69
2023/04/22 05:52:14;;;;;;;1999.90;999.90;;;;;;;;;;6212427;23;20375;-69
2023/04/22 05:54:59;;;;;;;1999.90;999.90;;;;;;;;;;6213463;23;20646;-69
2023/04/22 05:57:44;;;;;;;1999.90;999.90;;;;;;;;;;6213260;23;20217;-69
2023/04/22 06:00:29;;;;;;;1999.90;999.90;;;;;;;;;;6213466;23;20673;-68
2023/04/22 06:03:14;;;;;;;1999.90;999.90;;;;;;;;;;6213441;23;20206;-71
2023/04/22 06:06:00;;;;;;;1999.90;999.90;;;;;;;;;;6214386;23;20161;-68
2023/04/22 06:08:45;;;;;;;1999.90;999.90;;;;;;;;;;6213521;23;20169;-71
2023/04/22 06:11:30;;;;;;;1999.90;999.90;;;;;;;;;;6213969;23;20849;-69
2023/04/22 06:14:15;;;;;;;1999.90;999.90;;;;;;;;;;6213173;23;20240;-68
2023/04/22 06:17:00;;;;;;;1999.90;999.90;;;;;;;;;;6213035;23;20167;-69
2023/04/22 06:19:45;;;;;;;1999.90;999.90;;;;;;;;;;6213890;23;20169;-69
2023/04/22 06:22:31;;;;;;;1999.90;999.90;;;;;;;;;;6213481;23;20205;-67
2023/04/22 06:25:16;;;;;;;1999.90;999.90;;;;;;;;;;6213108;23;20213;-69
2023/04/22 06:28:01;;;;;;;1999.90;999.90;;;;;;;;;;6212468;23;20170;-71
2023/04/22 06:30:46;;;;;;;1999.90;999.90;;;;;;;;;;6213855;23;20182;-69
2023/04/22 06:33:31;;;;;;;1999.90;999.90;;;;;;;;;;6213092;23;20171;-72
2023/04/22 06:36:16;;;;;;;1999.90;999.90;;;;;;;;;;6213691;23;20189;-69
2023/04/22 06:39:04;;;;;;;1999.90;999.90;;;;;;;;;;6212609;23;20814;-68
2023/04/22 06:41:49;;;;;;;1999.90;999.90;;;;;;;;;;6212970;23;20228;-70
2023/04/22 06:44:33;;;;;;;1999.90;999.90;;;;;;;;;;6213150;23;20725;-70
2023/04/22 06:47:18;;;;;;;1999.90;999.90;;;;;;;;;;6213329;23;20169;-69
2023/04/22 06:50:03;;;;;;;1999.90;999.90;;;;;;;;;;6212426;23;20165;-68
2023/04/22 06:52:49;;;;;;;1999.90;999.90;;;;;;;;;;6213110;23;20535;-70
2023/04/22 06:55:35;;;;;;;1999.90;999.90;;;;;;;;;;6211144;23;20197;-69
2023/04/22 06:58:21;;;;;;;1999.90;999.90;;;;;;;;;;6213521;23;20520;-71
2023/04/22 07:01:06;;;;;;;1999.90;999.90;;;;;;;;;;6212836;23;20169;-68
2023/04/22 07:03:51;;;;;;;1999.90;999.90;;;;;;;;;;6212422;23;20166;-69
2023/04/22 07:06:36;;;;;;;1999.90;999.90;;;;;;;;;;6213606;23;20619;-68
2023/04/22 07:09:21;;;;;;;1999.90;999.90;;;;;;;;;;6213584;23;20248;-70
2023/04/22 07:12:07;;;;;;;1999.90;999.90;;;;;;;;;;6210028;23;20531;-70
2023/04/22 07:14:52;;;;;;;1999.90;999.90;;;;;;;;;;6212987;23;20193;-70
2023/04/22 07:17:37;;;;;;;1999.90;999.90;;;;;;;;;;6213242;23;20166;-71
2023/04/22 07:20:22;;;;;;;1999.90;999.90;;;;;;;;;;6213678;23;20197;-69
2023/04/22 07:23:07;;;;;;;1999.90;999.90;;;;;;;;;;6210849;23;20289;-72
2023/04/22 07:25:52;;;;;;;1999.90;999.90;;;;;;;;;;6211726;23;20170;-70
2023/04/22 07:28:38;;;;;;;1999.90;999.90;;;;;;;;;;6211691;23;20166;-69
2023/04/22 07:31:23;;;;;;;1999.90;999.90;;;;;;;;;;6209107;23;20363;-68
2023/04/22 07:34:09;;;;;;;1999.90;999.90;;;;;;;;;;6211476;23;20169;-69
2023/04/22 07:36:55;;;;;;;1999.90;999.90;;;;;;;;;;6211563;23;20179;-70
2023/04/22 07:39:40;;;;;;;1999.90;999.90;;;;;;;;;;6213245;23;20169;-69
2023/04/22 07:42:25;;;;;;;1999.90;999.90;;;;;;;;;;6212881;23;20248;-68
2023/04/22 07:45:12;;;;;;;1999.90;999.90;;;;;;;;;;6213636;23;20250;-68
2023/04/22 07:47:57;;;;;;;1999.90;999.90;;;;;;;;;;6212496;23;20258;-68
2023/04/22 07:50:42;;;;;;;1999.90;999.90;;;;;;;;;;6212730;23;20291;-70
2023/04/22 07:53:26;;;;;;;1999.90;999.90;;;;;;;;;;6213061;23;20209;-69
2023/04/22 07:56:12;;;;;;;1999.90;999.90;;;;;;;;;;6213279;23;20194;-69
2023/04/22 07:58:57;;;;;;;1999.90;999.90;;;;;;;;;;6212638;23;20171;-69
2023/04/22 08:01:44;;;;;;;1999.90;999.90;;;;;;;;;;6211935;23;20847;-69
2023/04/22 08:04:29;;;;;;;1999.90;999.90;;;;;;;;;;6212791;23;20237;-69
2023/04/22 08:07:14;;;;;;;1999.90;999.90;;;;;;;;;;6213284;23;20228;-67
2023/04/22 08:09:59;;;;;;;1999.90;999.90;;;;;;;;;;6213144;23;20173;-72
2023/04/22 08:12:44;;;;;;;1999.90;999.90;;;;;;;;;;6213327;23;20703;-67
2023/04/22 08:15:30;;;;;;;1999.90;999.90;;;;;;;;;;6211841;23;20786;-70
2023/04/22 08:18:16;;;;;;;1999.90;999.90;;;;;;;;;;6212716;23;20170;-68
2023/04/22 08:21:01;;;;;;;1999.90;999.90;;;;;;;;;;6212503;23;20209;-67
2023/04/22 08:23:46;;;;;;;1999.90;999.90;;;;;;;;;;6212731;23;20594;-68
2023/04/22 08:26:31;;;;;;;1999.90;999.90;;;;;;;;;;6212637;23;20227;-68
2023/04/22 08:29:16;;;;;;;1999.90;999.90;;;;;;;;;;6212213;23;20251;-68
2023/04/22 08:32:01;;;;;;;1999.90;999.90;;;;;;;;;;6210996;23;20208;-68
2023/04/22 08:34:47;;;;;;;1999.90;999.90;;;;;;;;;;6212187;23;20509;-69
2023/04/22 08:37:33;;;;;;;1999.90;999.90;;;;;;;;;;6212819;23;20197;-69
2023/04/22 08:40:18;;;;;;;1999.90;999.90;;;;;;;;;;6212743;23;20185;-71
2023/04/22 08:43:03;;;;;;;1999.90;999.90;;;;;;;;;;6212424;23;20282;-69
2023/04/22 08:45:49;;;;;;;1999.90;999.90;;;;;;;;;;6212907;23;20317;-70
2023/04/22 08:48:34;;;;;;;1999.90;999.90;;;;;;;;;;6212914;23;20256;-69
2023/04/22 08:51:21;;;;;;;1999.90;999.90;;;;;;;;;;6212341;23;20203;-68
2023/04/22 08:54:06;;;;;;;1999.90;999.90;;;;;;;;;;6212270;23;20188;-68
2023/04/22 08:56:51;;;;;;;1999.90;999.90;;;;;;;;;;6212868;23;20699;-70
2023/04/22 08:59:36;;;;;;;1999.90;999.90;;;;;;;;;;6212661;23;20212;-68
2023/04/22 09:02:22;;;;;;;1999.90;999.90;;;;;;;;;;6210878;23;20421;-68
2023/04/22 09:05:10;;;;;;;1999.90;999.90;;;;;;;;;;6212408;23;20500;-69
2023/04/22 09:07:56;;;;;;;1999.90;999.90;;;;;;;;;;6212395;23;20171;-68
2023/04/22 09:10:42;;;;;;;1999.90;999.90;;;;;;;;;;6212629;23;20167;-69
2023/04/22 09:13:26;;;;;;;1999.90;999.90;;;;;;;;;;6212260;23;20255;-69
2023/04/22 09:16:11;;;;;;;1999.90;999.90;;;;;;;;;;6212100;23;20273;-70
2023/04/22 09:18:56;;;;;;;1999.90;999.90;;;;;;;;;;6212155;23;20555;-70
2023/04/22 09:21:41;;;;;;;1999.90;999.90;;;;;;;;;;6211258;23;20222;-68
2023/04/22 09:24:27;;;;;;;1999.90;999.90;;;;;;;;;;6212164;23;20509;-69
2023/04/22 09:27:12;;;;;;;1999.90;999.90;;;;;;;;;;6211995;23;20166;-68
2023/04/22 09:29:57;;;;;;;1999.90;999.90;;;;;;;;;;6211471;23;20507;-67
2023/04/22 09:32:42;;;;;;;1999.90;999.90;;;;;;;;;;6212081;23;20208;-70
2023/04/22 09:35:28;;;;;;;1999.90;999.90;;;;;;;;;;6211866;23;20212;-68
2023/04/22 09:38:13;;;;;;;1999.90;999.90;;;;;;;;;;6212039;23;20169;-67
2023/04/22 09:40:59;;;;;;;1999.90;999.90;;;;;;;;;;6212291;23;20266;-67
2023/04/22 09:43:44;;;;;;;1999.90;999.90;;;;;;;;;;6211289;23;20410;-68
2023/04/22 09:46:30;;;;;;;1999.90;999.90;;;;;;;;;;6211730;23;20182;-70
2023/04/22 09:49:16;;;;;;;1999.90;999.90;;;;;;;;;;6210912;23;20217;-70
2023/04/22 09:52:01;;;;;;;1999.90;999.90;;;;;;;;;;6211685;23;20363;-71
2023/04/22 09:54:50;;;;;;;1999.90;999.90;;;;;;;;;;6212662;23;20173;-69
2023/04/22 09:57:39;;;;;;;1999.90;999.90;;;;;;;;;;6212894;23;20170;-68
2023/04/22 10:00:25;;;;;;;1999.90;999.90;;;;;;;;;;6214033;23;20253;-68
2023/04/22 10:03:10;;;;;;;1999.90;999.90;;;;;;;;;;6212848;23;20209;-68
2023/04/22 10:05:55;;;;;;;1999.90;999.90;;;;;;;;;;6214204;23;20509;-68
2023/04/22 10:08:41;;;;;;;1999.90;999.90;;;;;;;;;;6213914;23;20668;-69
2023/04/22 10:11:26;;;;;;;1999.90;999.90;;;;;;;;;;6214055;23;20207;-70
2023/04/22 10:14:13;;;;;;;1999.90;999.90;;;;;;;;;;6214031;23;20171;-69
2023/04/22 10:16:59;;;;;;;1999.90;999.90;;;;;;;;;;6213815;23;20243;-68
2023/04/22 10:19:46;;;;;;;1999.90;999.90;;;;;;;;;;6213949;23;20217;-69
2023/04/22 10:22:31;;;;;;;1999.90;999.90;;;;;;;;;;6213734;23;20212;-68
2023/04/22 10:25:21;;;;;;;1999.90;999.90;;;;;;;;;;6213629;23;20476;-68
2023/04/22 10:28:07;;;;;;;1999.90;999.90;;;;;;;;;;6213639;23;20177;-71
2023/04/22 10:30:54;;;;;;;1999.90;999.90;;;;;;;;;;6213168;23;20173;-69
2023/04/22 10:33:40;;;;;;;1999.90;999.90;;;;;;;;;;6213660;23;20545;-68
2023/04/22 10:36:26;;;;;;;1999.90;999.90;;;;;;;;;;6213320;23;20212;-69
2023/04/22 10:39:15;;;;;;;1999.90;999.90;;;;;;;;;;6213639;23;20169;-71
2023/04/22 10:42:10;;;;;;;1999.90;999.90;;;;;;;;;;6212950;23;20271;-68
2023/04/22 10:44:59;;;;;;;1999.90;999.90;;;;;;;;;;6213169;23;20680;-69
2023/04/22 10:47:46;;;;;;;1999.90;999.90;;;;;;;;;;6211616;23;20642;-70
2023/04/22 10:50:32;;;;;;;1999.90;999.90;;;;;;;;;;6213762;23;20224;-69
2023/04/22 10:53:36;;;;;;;1999.90;999.90;;;;;;;;;;6213045;23;20263;-69
2023/04/22 10:56:21;;;;;;;1999.90;999.90;;;;;;;;;;6213036;23;20199;-68
2023/04/22 10:59:15;;;;;;;1999.90;999.90;;;;;;;;;;6213669;23;20250;-69
2023/04/22 11:02:00;;;;;;;1999.90;999.90;;;;;;;;;;6212341;23;20965;-71
2023/04/22 11:04:47;;;;;;;1999.90;999.90;;;;;;;;;;6213505;23;20172;-69
2023/04/22 11:07:34;;;;;;;1999.90;999.90;;;;;;;;;;6213129;23;20607;-68
2023/04/22 11:10:39;;;;;;;1999.90;999.90;;;;;;;;;;6213250;23;20169;-70
2023/04/22 11:13:24;;;;;;;1999.90;999.90;;;;;;;;;;6214361;23;20168;-69
2023/04/22 11:16:09;;;;;;;1999.90;999.90;;;;;;;;;;6215504;23;20666;-69
2023/04/22 11:18:55;;;;;;;1999.90;999.90;;;;;;;;;;6215513;23;20165;-67
2023/04/22 11:21:41;;;;;;;1999.90;999.90;;;;;;;;;;6215521;23;20208;-69
2023/04/22 11:24:26;;;;;;;1999.90;999.90;;;;;;;;;;6215498;23;20236;-69
2023/04/22 11:27:11;;;;;;;1999.90;999.90;;;;;;;;;;6215865;23;20780;-69
2023/04/22 11:29:59;;;;;;;1999.90;999.90;;;;;;;;;;6215433;23;20181;-69
2023/04/22 11:32:45;;;;;;;1999.90;999.90;;;;;;;;;;6215495;23;20206;-69
2023/04/22 11:35:31;;;;;;;1999.90;999.90;;;;;;;;;;6215345;23;20236;-69
2023/04/22 11:38:17;;;;;;;1999.90;999.90;;;;;;;;;;6215581;23;20245;-70
2023/04/22 11:41:03;;;;;;;1999.90;999.90;;;;;;;;;;6215232;23;20164;-68
2023/04/22 11:43:48;;;;;;;1999.90;999.90;;;;;;;;;;6215002;23;20503;-69
2023/04/22 11:46:37;;;;;;;1999.90;999.90;;;;;;;;;;6215476;23;20223;-70
2023/04/22 11:49:21;;;;;;;1999.90;999.90;;;;;;;;;;6215317;23;20241;-71
2023/04/22 11:52:06;;;;;;;1999.90;999.90;;;;;;;;;;6213566;23;20867;-69
2023/04/22 11:54:53;;;;;;;1999.90;999.90;;;;;;;;;;6215130;23;20516;-69
2023/04/22 11:57:38;;;;;;;1999.90;999.90;;;;;;;;;;6215243;23;20645;-66
2023/04/22 12:00:24;;;;;;;1999.90;999.90;;;;;;;;;;6215121;23;20175;-69
2023/04/22 12:03:12;;;;;;;1999.90;999.90;;;;;;;;;;6215370;23;20204;-70
2023/04/22 12:05:58;;;;;;;1999.90;999.90;;;;;;;;;;6214253;23;20366;-68
2023/04/22 12:08:45;;;;;;;1999.90;999.90;;;;;;;;;;6215383;23;20172;-69
2023/04/22 12:11:31;;;;;;;1999.90;999.90;;;;;;;;;;6215158;23;20250;-69
2023/04/22 12:14:16;;;;;;;1999.90;999.90;;;;;;;;;;6214898;23;20171;-69
2023/04/22 12:17:03;;;;;;;1999.90;999.90;;;;;;;;;;6215221;23;20195;-69
2023/04/22 12:19:47;;;;;;;1999.90;999.90;;;;;;;;;;6214963;23;20259;-68
2023/04/22 12:22:33;;;;;;;1999.90;999.90;;;;;;;;;;6213538;23;20202;-67
2023/04/22 12:25:18;;;;;;;1999.90;999.90;;;;;;;;;;6212718;23;20229;-67
2023/04/22 12:28:05;;;;;;;1999.90;999.90;;;;;;;;;;6214479;23;20206;-69
2023/04/22 12:30:49;;;;;;;1999.90;999.90;;;;;;;;;;6214293;23;20624;-68
2023/04/22 12:33:35;;;;;;;1999.90;999.90;;;;;;;;;;6213861;23;20220;-68
2023/04/22 12:36:20;;;;;;;1999.90;999.90;;;;;;;;;;6214170;23;20418;-67
2023/04/22 12:39:05;;;;;;;1999.90;999.90;;;;;;;;;;6214361;23;20690;-71
2023/04/22 12:41:50;;;;;;;1999.90;999.90;;;;;;;;;;6214567;23;20258;-68
2023/04/22 12:44:36;;;;;;;1999.90;999.90;;;;;;;;;;6213984;23;20210;-68
2023/04/22 12:47:21;;;;;;;1999.90;999.90;;;;;;;;;;6214475;23;20171;-68
2023/04/22 12:50:07;;;;;;;1999.90;999.90;;;;;;;;;;6214633;23;20166;-68
2023/04/22 12:52:52;;;;;;;1999.90;999.90;;;;;;;;;;6211402;23;20420;-68
2023/04/22 12:55:37;;;;;;;1999.90;999.90;;;;;;;;;;6213274;23;20229;-66
2023/04/22 12:58:21;;;;;;;1999.90;999.90;;;;;;;;;;6214538;23;20193;-69
2023/04/22 13:01:08;;;;;;;1999.90;999.90;;;;;;;;;;6212582;23;20634;-69
2023/04/22 13:03:53;;;;;;;1999.90;999.90;;;;;;;;;;6212865;23;20165;-69
2023/04/22 13:06:38;;;;;;;1999.90;999.90;;;;;;;;;;6214131;23;20243;-68
2023/04/22 13:09:24;;;;;;;1999.90;999.90;;;;;;;;;;6212151;23;20247;-70
2023/04/22 13:12:09;;;;;;;1999.90;999.90;;;;;;;;;;6212904;23;20217;-68
2023/04/22 13:14:54;;;;;;;1999.90;999.90;;;;;;;;;;6214166;23;20557;-67
2023/04/22 13:17:40;;;;;;;1999.90;999.90;;;;;;;;;;6213324;23;20236;-68
2023/04/22 13:20:25;;;;;;;1999.90;999.90;;;;;;;;;;6211689;23;20511;-67
2023/04/22 13:23:11;;;;;;;1999.90;999.90;;;;;;;;;;6213579;23;20204;-70
2023/04/22 13:25:56;;;;;;;1999.90;999.90;;;;;;;;;;6211987;23;20370;-67
2023/04/22 13:28:41;;;;;;;1999.90;999.90;;;;;;;;;;6214114;23;20240;-66
2023/04/22 13:31:26;;;;;;;1999.90;999.90;;;;;;;;;;6213523;23;20247;-68
2023/04/22 13:34:14;;;;;;;1999.90;999.90;;;;;;;;;;6213920;23;20220;-68
2023/04/22 13:36:59;;;;;;;1999.90;999.90;;;;;;;;;;6214142;23;20528;-68
2023/04/22 13:39:43;;;;;;;1999.90;999.90;;;;;;;;;;6212662;23;20374;-67
2023/04/22 13:42:29;;;;;;;1999.90;999.90;;;;;;;;;;6212386;23;20352;-67
2023/04/22 13:45:14;;;;;;;1999.90;999.90;;;;;;;;;;6212458;23;20165;-67
2023/04/22 13:47:58;;;;;;;1999.90;999.90;;;;;;;;;;6214392;23;20229;-68
2023/04/22 13:50:45;;;;;;;1999.90;999.90;;;;;;;;;;6213482;23;20200;-69
2023/04/22 13:53:29;;;;;;;1999.90;999.90;;;;;;;;;;6213276;23;20170;-68
2023/04/22 13:56:14;;;;;;;1999.90;999.90;;;;;;;;;;6212902;23;20169;-67
2023/04/22 13:58:59;;;;;;;1999.90;999.90;;;;;;;;;;6214117;23;20166;-69
2023/04/22 14:01:45;;;;;;;1999.90;999.90;;;;;;;;;;6213966;23;20201;-69
2023/04/22 14:04:29;;;;;;;1999.90;999.90;;;;;;;;;;6213222;23;20165;-69
2023/04/22 14:07:16;;;;;;;1999.90;999.90;;;;;;;;;;6213464;23;20768;-67
2023/04/22 14:10:01;;;;;;;1999.90;999.90;;;;;;;;;;6214082;23;20249;-70
2023/04/22 14:12:46;;;;;;;1999.90;999.90;;;;;;;;;;6213094;23;20382;-68
2023/04/22 14:15:31;;;;;;;1999.90;999.90;;;;;;;;;;6213384;23;20555;-69
2023/04/22 14:18:16;;;;;;;1999.90;999.90;;;;;;;;;;6213996;23;20189;-66
2023/04/22 14:21:01;;;;;;;1999.90;999.90;;;;;;;;;;6213926;23;20458;-68
2023/04/22 14:23:47;;;;;;;1999.90;999.90;;;;;;;;;;6213345;23;20697;-68
2023/04/22 14:26:32;;;;;;;1999.90;999.90;;;;;;;;;;6212821;23;20500;-69
2023/04/22 14:29:17;;;;;;;1999.90;999.90;;;;;;;;;;6212299;23;20906;-68
2023/04/22 14:32:02;;;;;;;1999.90;999.90;;;;;;;;;;6213871;23;20256;-67
2023/04/22 14:34:47;;;;;;;1999.90;999.90;;;;;;;;;;6213327;23;20208;-68
2023/04/22 14:37:34;;;;;;;1999.90;999.90;;;;;;;;;;6213184;23;20525;-68
2023/04/22 14:40:24;;;;;;;1999.90;999.90;;;;;;;;;;6213845;23;20169;-67
2023/04/22 14:43:09;;;;;;;1999.90;999.90;;;;;;;;;;6212725;23;20225;-67
2023/04/22 14:45:54;;;;;;;1999.90;999.90;;;;;;;;;;6213793;23;20265;-69
2023/04/22 14:48:39;;;;;;;1999.90;999.90;;;;;;;;;;6215059;23;20205;-68
2023/04/22 14:51:24;;;;;;;1999.90;999.90;;;;;;;;;;6215829;23;20204;-70
2023/04/22 14:54:09;;;;;;;1999.90;999.90;;;;;;;;;;6215580;23;20169;-68
2023/04/22 14:56:57;;;;;;;1999.90;999.90;;;;;;;;;;6215788;23;20228;-68
2023/04/22 14:59:42;;;;;;;1999.90;999.90;;;;;;;;;;6215423;23;20169;-68
2023/04/22 15:02:27;;;;;;;1999.90;999.90;;;;;;;;;;6214231;23;20459;-69
2023/04/22 15:05:11;;;;;;;1999.90;999.90;;;;;;;;;;6215798;23;20256;-68
2023/04/22 15:07:57;;;;;;;1999.90;999.90;;;;;;;;;;6215739;23;20209;-67
2023/04/22 15:10:42;;;;;;;1999.90;999.90;;;;;;;;;;6215197;23;20247;-69
2023/04/22 15:13:28;;;;;;;1999.90;999.90;;;;;;;;;;6215032;23;20200;-68
2023/04/22 15:16:13;;;;;;;1999.90;999.90;;;;;;;;;;6214125;23;20712;-70
2023/04/22 15:18:59;;;;;;;1999.90;999.90;;;;;;;;;;6215410;23;20194;-69
2023/04/22 15:21:45;;;;;;;1999.90;999.90;;;;;;;;;;6214256;23;20208;-68
2023/04/22 15:24:30;;;;;;;1999.90;999.90;;;;;;;;;;6214563;23;20197;-68
2023/04/22 15:27:15;;;;;;;1999.90;999.90;;;;;;;;;;6214973;23;20182;-68
2023/04/22 15:30:02;;;;;;;1999.90;999.90;;;;;;;;;;6214803;23;20169;-71
2023/04/22 15:32:48;;;;;;;1999.90;999.90;;;;;;;;;;6214970;23;20248;-68
2023/04/22 15:35:33;;;;;;;1999.90;999.90;;;;;;;;;;6214883;23;20168;-68
2023/04/22 15:38:18;;;;;;;1999.90;999.90;;;;;;;;;;6215392;23;20280;-69
2023/04/22 15:41:03;;;;;;;1999.90;999.90;;;;;;;;;;6215095;23;20621;-69
2023/04/22 15:43:50;;;;;;;1999.90;999.90;;;;;;;;;;6214601;23;20262;-67
2023/04/22 15:46:36;;;;;;;1999.90;999.90;;;;;;;;;;6215246;23;20218;-68
2023/04/22 15:49:22;;;;;;;1999.90;999.90;;;;;;;;;;6215276;23;20165;-68
2023/04/22 15:52:07;;;;;;;1999.90;999.90;;;;;;;;;;6213794;23;20514;-71
2023/04/22 15:54:51;;;;;;;1999.90;999.90;;;;;;;;;;6215104;23;20173;-69
2023/04/22 15:57:36;;;;;;;1999.90;999.90;;;;;;;;;;6215313;23;20193;-68
2023/04/22 16:00:21;;;;;;;1999.90;999.90;;;;;;;;;;6214530;23;20166;-70
2023/04/22 16:03:07;;;;;;;1999.90;999.90;;;;;;;;;;6213888;23;20208;-69
2023/04/22 16:05:52;;;;;;;1999.90;999.90;;;;;;;;;;6214302;23;20432;-68